Time;durP1;ratioP1;P1;durP2;ratioP2;P2;SDS_P1;SDS_P2;PMS_P1;PMS_P2;Temp;Humidity;BMP_temperature;BMP_pressure;BME280_temperature;BME280_humidity;BME280_pressure;Samples;Min_cycle;Max_cycle;Signal;HPM_P1;HPM_P2
2022/01/29 00:00:11;;;;;;;;;;;1.90;99.90;;;;;;4892723;28;19930;-63
2022/01/29 00:02:38;;;;;;;;;;;1.80;99.90;;;;;;4921531;28;19930;-65
2022/01/29 00:05:06;;;;;;;;;;;1.80;99.90;;;;;;4935925;28;20032;-63
2022/01/29 00:07:43;;;;;;;;;;;1.80;99.90;;;;;;3157046;28;10001661;-66
2022/01/29 00:10:11;;;;;;;;;;;1.70;99.90;;;;;;2865284;28;10003498;-71
2022/01/29 00:12:38;;;;;;;;;;;1.70;99.90;;;;;;4894166;28;20052;-71
2022/01/29 00:15:05;;;;;;;;;;;1.70;99.90;;;;;;4893158;28;19931;-70
2022/01/29 00:17:32;;;;;;;;;;;1.70;99.90;;;;;;4889052;28;20598;-70
2022/01/29 00:19:59;;;;;;;;;;;1.60;99.90;;;;;;4888469;28;19927;-70
2022/01/29 00:22:26;;;;;;;;;;;1.60;99.90;;;;;;4886364;28;19937;-70
2022/01/29 00:24:53;;;;;;;;;;;1.60;99.90;;;;;;4892650;28;20017;-70
2022/01/29 00:27:21;;;;;;;;;;;1.60;99.90;;;;;;4893350;28;20049;-71
2022/01/29 00:29:48;;;;;;;;;;;1.60;99.90;;;;;;4894729;28;19931;-67
2022/01/29 00:32:15;;;;;;;;;;;1.60;99.90;;;;;;4889991;28;19930;-63
2022/01/29 00:34:42;;;;;;;;;;;1.60;99.90;;;;;;4894876;28;19930;-66
2022/01/29 00:37:09;;;;;;;;;;;1.60;99.90;;;;;;4893560;28;19948;-70
2022/01/29 00:39:36;;;;;;;;;;;1.60;99.90;;;;;;4904263;28;20009;-65
2022/01/29 00:42:03;;;;;;;;;;;1.60;99.90;;;;;;4934175;28;19937;-69
2022/01/29 00:44:45;;;;;;;;;;;1.60;99.90;;;;;;4927959;28;19937;-63
2022/01/29 00:47:13;;;;;;;;;;;1.50;99.90;;;;;;4872760;28;20950;-64
2022/01/29 00:49:59;;;;;;;;;;;1.50;99.90;;;;;;2626406;28;10003009;-67
2022/01/29 00:52:26;;;;;;;;;;;1.50;99.90;;;;;;3876620;28;10001222;-63
2022/01/29 00:54:53;;;;;;;;;;;1.50;99.90;;;;;;4890157;28;20068;-64
2022/01/29 00:57:20;;;;;;;;;;;1.50;99.90;;;;;;4885404;28;20008;-69
2022/01/29 00:59:47;;;;;;;;;;;1.50;99.90;;;;;;4884817;28;20064;-64
2022/01/29 01:02:14;;;;;;;;;;;1.50;99.90;;;;;;4887586;28;19941;-66
2022/01/29 01:04:41;;;;;;;;;;;1.50;99.90;;;;;;4882988;28;19930;-67
2022/01/29 01:07:08;;;;;;;;;;;1.40;99.90;;;;;;4886153;28;20329;-63
2022/01/29 01:09:35;;;;;;;;;;;1.40;99.90;;;;;;4886300;28;20060;-62
2022/01/29 01:12:03;;;;;;;;;;;1.40;99.90;;;;;;4887197;28;19930;-73
2022/01/29 01:14:34;;;;;;;;;;;1.40;99.90;;;;;;4890323;28;20246;-66
2022/01/29 01:17:01;;;;;;;;;;;1.40;99.90;;;;;;4891725;28;20279;-67
2022/01/29 01:19:28;;;;;;;;;;;1.40;99.90;;;;;;4889443;28;20053;-68
2022/01/29 01:21:56;;;;;;;;;;;1.30;99.90;;;;;;4915052;28;19931;-65
2022/01/29 01:24:24;;;;;;;;;;;1.30;99.90;;;;;;4934482;28;19937;-68
2022/01/29 01:26:51;;;;;;;;;;;1.30;99.90;;;;;;4932275;28;20065;-66
2022/01/29 01:29:17;;;;;;;;;;;1.30;99.90;;;;;;4892515;28;19936;-63
2022/01/29 01:32:01;;;;;;;;;;;1.30;99.90;;;;;;4034416;28;10000661;-63
2022/01/29 01:34:32;;;;;;;;;;;1.30;99.90;;;;;;1687955;28;10002036;-68
2022/01/29 01:37:05;;;;;;;;;;;1.40;99.90;;;;;;4893596;28;22143;-70
2022/01/29 01:39:35;;;;;;;;;;;1.50;99.90;;;;;;4895287;28;20079;-71
2022/01/29 01:42:04;;;;;;;;;;;1.40;99.90;;;;;;4894549;28;19953;-70
2022/01/29 01:44:35;;;;;;;;;;;1.50;99.90;;;;;;4894308;28;19945;-68
2022/01/29 01:47:02;;;;;;;;;;;1.50;99.90;;;;;;4889712;28;20041;-65
2022/01/29 01:49:29;;;;;;;;;;;1.50;99.90;;;;;;4889925;28;20099;-68
2022/01/29 01:51:56;;;;;;;;;;;1.60;99.90;;;;;;4893354;28;20132;-65
2022/01/29 01:54:23;;;;;;;;;;;1.60;99.90;;;;;;4920253;28;20060;-71
2022/01/29 01:56:50;;;;;;;;;;;1.60;99.90;;;;;;4887708;28;19930;-70
2022/01/29 01:59:17;;;;;;;;;;;1.60;99.90;;;;;;4888822;28;19930;-66
2022/01/29 02:01:44;;;;;;;;;;;1.60;99.90;;;;;;4901565;28;19985;-66
2022/01/29 02:04:11;;;;;;;;;;;1.60;99.90;;;;;;4896189;28;19965;-65
2022/01/29 02:06:38;;;;;;;;;;;1.60;99.90;;;;;;4934925;28;20056;-66
2022/01/29 02:09:05;;;;;;;;;;;1.60;99.90;;;;;;4933806;28;20009;-65
2022/01/29 02:11:32;;;;;;;;;;;1.60;99.90;;;;;;4933173;28;19930;-68
2022/01/29 02:14:00;;;;;;;;;;;1.60;99.90;;;;;;4931802;28;19937;-68
2022/01/29 02:16:28;;;;;;;;;;;1.60;99.90;;;;;;4949736;28;19933;-66
2022/01/29 02:18:55;;;;;;;;;;;1.60;99.90;;;;;;4930741;28;21309;-63
2022/01/29 02:21:26;;;;;;;;;;;1.60;99.90;;;;;;4932824;28;19930;-69
2022/01/29 02:23:52;;;;;;;;;;;1.60;99.90;;;;;;4928536;28;20024;-64
2022/01/29 02:26:19;;;;;;;;;;;1.60;99.90;;;;;;4933089;28;19934;-68
2022/01/29 02:28:46;;;;;;;;;;;1.60;99.90;;;;;;4933330;28;20337;-64
2022/01/29 02:31:13;;;;;;;;;;;1.60;99.90;;;;;;4934781;28;20351;-66
2022/01/29 02:33:40;;;;;;;;;;;1.60;99.90;;;;;;4933988;28;20025;-69
2022/01/29 02:36:07;;;;;;;;;;;1.60;99.90;;;;;;4935241;28;20013;-65
2022/01/29 02:38:35;;;;;;;;;;;1.70;99.90;;;;;;4932129;28;19969;-63
2022/01/29 02:41:04;;;;;;;;;;;1.60;99.90;;;;;;4935900;28;20024;-72
2022/01/29 02:43:43;;;;;;;;;;;1.60;99.90;;;;;;4930787;28;19938;-62
2022/01/29 02:48:44;;;;;;;;;;;1.60;99.90;;;;;;4936041;28;19938;-66
2022/01/29 02:51:11;;;;;;;;;;;1.60;99.90;;;;;;4933844;28;19930;-63
2022/01/29 02:53:38;;;;;;;;;;;1.70;99.90;;;;;;4932836;28;19933;-66
2022/01/29 02:56:05;;;;;;;;;;;1.70;99.90;;;;;;4933772;28;19952;-63
2022/01/29 02:58:32;;;;;;;;;;;1.70;99.90;;;;;;4932322;28;19934;-64
2022/01/29 03:00:59;;;;;;;;;;;1.70;99.90;;;;;;4929571;28;19938;-68
2022/01/29 03:03:26;;;;;;;;;;;1.70;99.90;;;;;;4931459;28;20319;-63
2022/01/29 03:05:53;;;;;;;;;;;1.70;99.90;;;;;;4933922;28;19961;-66
2022/01/29 03:08:19;;;;;;;;;;;1.70;99.90;;;;;;4935295;28;19947;-64
2022/01/29 03:10:49;;;;;;;;;;;1.70;99.90;;;;;;4931043;28;19965;-67
2022/01/29 03:13:16;;;;;;;;;;;1.70;99.90;;;;;;4928613;28;19926;-65
2022/01/29 03:15:43;;;;;;;;;;;1.80;99.90;;;;;;4934593;28;20075;-62
2022/01/29 03:18:10;;;;;;;;;;;1.80;99.90;;;;;;4931857;28;19930;-67
2022/01/29 03:20:36;;;;;;;;;;;1.80;99.90;;;;;;4932812;28;19946;-65
2022/01/29 03:23:03;;;;;;;;;;;1.80;99.90;;;;;;4892176;28;19930;-69
2022/01/29 03:25:44;;;;;;;;;;;1.80;99.90;;;;;;2779805;28;10002005;-66
2022/01/29 03:28:11;;;;;;;;;;;1.80;99.90;;;;;;3861912;28;10001040;-66
2022/01/29 03:30:38;;;;;;;;;;;1.80;99.90;;;;;;4887606;28;19926;-71
2022/01/29 03:33:05;;;;;;;;;;;1.80;99.90;;;;;;4883842;28;20264;-72
2022/01/29 03:35:31;;;;;;;;;;;1.80;99.90;;;;;;4887563;28;20053;-65
2022/01/29 03:37:58;;;;;;;;;;;1.80;99.90;;;;;;4886049;28;19953;-66
2022/01/29 03:40:25;;;;;;;;;;;1.80;99.90;;;;;;4883862;28;20325;-73
2022/01/29 03:43:02;;;;;;;;;;;1.80;99.90;;;;;;4883575;28;19930;-70
2022/01/29 03:45:29;;;;;;;;;;;1.80;99.90;;;;;;4885124;28;20040;-67
2022/01/29 03:47:56;;;;;;;;;;;1.80;99.90;;;;;;4890576;28;20879;-69
2022/01/29 03:50:23;;;;;;;;;;;1.80;99.90;;;;;;4890215;28;19938;-76
2022/01/29 03:52:50;;;;;;;;;;;1.90;99.90;;;;;;4888360;28;19930;-66
2022/01/29 03:55:16;;;;;;;;;;;1.90;99.90;;;;;;4888158;28;20759;-65
2022/01/29 03:57:43;;;;;;;;;;;1.90;99.90;;;;;;4911496;28;19930;-66
2022/01/29 04:00:11;;;;;;;;;;;1.90;99.90;;;;;;4934282;28;20029;-68
2022/01/29 04:02:39;;;;;;;;;;;1.90;99.90;;;;;;4932796;28;21292;-65
2022/01/29 04:05:06;;;;;;;;;;;1.90;99.90;;;;;;4932800;28;19952;-63
2022/01/29 04:07:33;;;;;;;;;;;2.00;99.90;;;;;;4934591;28;19930;-69
2022/01/29 04:10:00;;;;;;;;;;;2.00;99.90;;;;;;4950646;28;20336;-67
2022/01/29 04:12:30;;;;;;;;;;;2.00;99.90;;;;;;4935277;28;20028;-64
2022/01/29 04:14:58;;;;;;;;;;;2.00;99.90;;;;;;4935543;28;19937;-65
2022/01/29 04:17:25;;;;;;;;;;;2.00;99.90;;;;;;4935330;28;19942;-65
2022/01/29 04:19:52;;;;;;;;;;;2.00;99.90;;;;;;4935805;28;19998;-71
2022/01/29 04:22:18;;;;;;;;;;;2.00;99.90;;;;;;4938764;28;20025;-69
2022/01/29 04:24:45;;;;;;;;;;;2.00;99.90;;;;;;4935277;28;20036;-66
2022/01/29 04:27:19;;;;;;;;;;;2.00;99.90;;;;;;4934520;28;20241;-65
2022/01/29 04:29:54;;;;;;;;;;;2.00;99.90;;;;;;4933339;28;20397;-63
2022/01/29 04:32:32;;;;;;;;;;;2.00;99.90;;;;;;4936338;28;19938;-67
2022/01/29 04:34:59;;;;;;;;;;;2.00;99.90;;;;;;4936852;28;19956;-67
2022/01/29 04:37:25;;;;;;;;;;;2.00;99.90;;;;;;4932433;28;20871;-66
2022/01/29 04:39:52;;;;;;;;;;;2.00;99.90;;;;;;4936724;28;20481;-66
2022/01/29 04:42:19;;;;;;;;;;;2.00;99.90;;;;;;4937538;28;19934;-67
2022/01/29 04:44:46;;;;;;;;;;;2.00;99.90;;;;;;4933478;28;19996;-65
2022/01/29 04:47:12;;;;;;;;;;;2.00;99.90;;;;;;4932642;28;19926;-69
2022/01/29 04:49:39;;;;;;;;;;;2.00;99.90;;;;;;4934959;28;19985;-65
2022/01/29 04:52:06;;;;;;;;;;;2.00;99.90;;;;;;4935015;28;19985;-66
2022/01/29 04:54:33;;;;;;;;;;;2.00;99.90;;;;;;4936768;28;20349;-64
2022/01/29 04:57:00;;;;;;;;;;;2.00;99.90;;;;;;4929908;28;19935;-67
2022/01/29 04:59:27;;;;;;;;;;;2.00;99.90;;;;;;4933031;28;19970;-64
2022/01/29 05:01:53;;;;;;;;;;;2.00;99.90;;;;;;4933527;28;20939;-66
2022/01/29 05:04:20;;;;;;;;;;;2.00;99.90;;;;;;4935041;28;19926;-65
2022/01/29 05:06:47;;;;;;;;;;;2.00;99.90;;;;;;4933647;28;20413;-70
2022/01/29 05:09:14;;;;;;;;;;;2.00;99.90;;;;;;4933113;28;20053;-63
2022/01/29 05:11:44;;;;;;;;;;;2.00;99.90;;;;;;4933693;28;20012;-65
2022/01/29 05:14:19;;;;;;;;;;;2.00;99.90;;;;;;4936032;28;19950;-65
2022/01/29 05:26:50;;;;;;;;;;;2.00;99.90;;;;;;4934523;28;19972;-67
2022/01/29 05:27:47;;;;;;;;;;;2.00;99.90;;;;;;3539419;28;10001073;-66
2022/01/29 05:30:13;;;;;;;;;;;2.10;99.90;;;;;;4886947;28;19936;-71
2022/01/29 05:32:40;;;;;;;;;;;2.10;99.90;;;;;;4886523;28;20399;-71
2022/01/29 05:35:07;;;;;;;;;;;2.10;99.90;;;;;;4886209;28;19936;-68
2022/01/29 05:37:39;;;;;;;;;;;2.10;99.90;;;;;;4891641;28;20523;-67
2022/01/29 05:40:07;;;;;;;;;;;2.00;99.90;;;;;;4892051;28;19945;-66
2022/01/29 05:42:33;;;;;;;;;;;2.10;99.90;;;;;;4905262;28;21540;-70
2022/01/29 05:45:00;;;;;;;;;;;2.10;99.90;;;;;;4886981;28;19930;-66
2022/01/29 05:47:27;;;;;;;;;;;2.00;99.90;;;;;;4885326;28;19986;-63
2022/01/29 05:49:54;;;;;;;;;;;2.00;99.90;;;;;;4886564;28;20029;-66
2022/01/29 05:52:21;;;;;;;;;;;2.00;99.90;;;;;;4887982;28;19930;-73
2022/01/29 05:54:48;;;;;;;;;;;2.00;99.90;;;;;;4888004;28;19930;-72
2022/01/29 05:57:16;;;;;;;;;;;2.00;99.90;;;;;;4912810;28;20017;-66
2022/01/29 05:59:43;;;;;;;;;;;2.00;99.90;;;;;;4933480;28;20297;-66
2022/01/29 06:02:09;;;;;;;;;;;2.00;99.90;;;;;;4933412;28;20024;-64
2022/01/29 06:04:36;;;;;;;;;;;2.00;99.90;;;;;;4934153;28;19938;-68
2022/01/29 06:07:03;;;;;;;;;;;2.00;99.90;;;;;;4935068;28;20025;-67
2022/01/29 06:09:30;;;;;;;;;;;2.00;99.90;;;;;;4932658;28;19930;-66
2022/01/29 06:11:57;;;;;;;;;;;2.00;99.90;;;;;;4934937;28;20289;-66
2022/01/29 06:14:23;;;;;;;;;;;2.00;99.90;;;;;;4935624;28;20458;-63
2022/01/29 06:16:50;;;;;;;;;;;2.00;99.90;;;;;;4933219;28;20025;-67
2022/01/29 06:19:17;;;;;;;;;;;2.00;99.90;;;;;;4930973;28;19930;-67
2022/01/29 06:21:44;;;;;;;;;;;2.00;99.90;;;;;;4934145;28;19941;-63
2022/01/29 06:24:10;;;;;;;;;;;2.00;99.90;;;;;;4933518;28;19965;-66
2022/01/29 06:26:37;;;;;;;;;;;2.00;99.90;;;;;;4933775;28;20021;-68
2022/01/29 06:29:04;;;;;;;;;;;2.00;99.90;;;;;;4932960;28;19930;-65
2022/01/29 06:31:31;;;;;;;;;;;2.00;99.90;;;;;;4931672;28;20013;-64
2022/01/29 06:33:58;;;;;;;;;;;2.00;99.90;;;;;;4934628;28;19931;-64
2022/01/29 06:36:25;;;;;;;;;;;2.00;99.90;;;;;;4934324;28;19936;-64
2022/01/29 06:38:52;;;;;;;;;;;2.00;99.90;;;;;;4932866;28;19930;-66
2022/01/29 06:41:18;;;;;;;;;;;2.10;99.90;;;;;;4933659;28;20024;-65
2022/01/29 06:43:45;;;;;;;;;;;2.10;99.90;;;;;;4934670;28;20017;-66
2022/01/29 06:46:12;;;;;;;;;;;2.10;99.90;;;;;;4934451;28;19977;-70
2022/01/29 06:48:39;;;;;;;;;;;2.10;99.90;;;;;;4935290;28;20021;-66
2022/01/29 06:51:06;;;;;;;;;;;2.10;99.90;;;;;;4932967;28;19927;-67
2022/01/29 06:53:32;;;;;;;;;;;2.10;99.90;;;;;;4933507;28;20017;-70
2022/01/29 06:55:59;;;;;;;;;;;2.10;99.90;;;;;;4933714;28;19930;-67
2022/01/29 06:58:26;;;;;;;;;;;2.20;99.90;;;;;;4935374;28;20480;-70
2022/01/29 07:01:13;;;;;;;;;;;2.10;99.90;;;;;;4931030;28;19930;-64
2022/01/29 07:03:40;;;;;;;;;;;2.10;99.90;;;;;;4932411;28;19934;-63
2022/01/29 07:06:07;;;;;;;;;;;2.20;99.90;;;;;;4931155;28;20033;-66
2022/01/29 07:08:37;;;;;;;;;;;2.10;99.90;;;;;;4934251;28;20097;-64
2022/01/29 07:11:04;;;;;;;;;;;2.20;99.90;;;;;;4933860;28;19930;-66
2022/01/29 07:13:31;;;;;;;;;;;2.10;99.90;;;;;;4922255;28;20472;-65
2022/01/29 07:15:58;;;;;;;;;;;2.10;99.90;;;;;;4933614;28;19933;-66
2022/01/29 07:18:25;;;;;;;;;;;2.10;99.90;;;;;;4929310;28;19930;-65
2022/01/29 07:20:52;;;;;;;;;;;2.10;99.90;;;;;;4929696;28;20026;-64
2022/01/29 07:23:18;;;;;;;;;;;2.10;99.90;;;;;;4927455;28;20013;-65
2022/01/29 07:25:45;;;;;;;;;;;2.10;99.90;;;;;;4931670;28;19945;-65
2022/01/29 07:28:12;;;;;;;;;;;2.10;99.90;;;;;;4929525;28;20021;-64
2022/01/29 07:30:39;;;;;;;;;;;2.10;99.90;;;;;;4930783;28;21376;-64
2022/01/29 07:33:06;;;;;;;;;;;2.10;99.90;;;;;;4929469;28;20137;-63
2022/01/29 07:35:32;;;;;;;;;;;2.10;99.90;;;;;;4931488;28;19953;-62
2022/01/29 07:37:59;;;;;;;;;;;2.20;99.90;;;;;;4932001;28;19931;-65
2022/01/29 07:40:26;;;;;;;;;;;2.20;99.90;;;;;;4933303;28;19922;-64
2022/01/29 07:42:53;;;;;;;;;;;2.20;99.90;;;;;;4927811;28;19938;-64
2022/01/29 07:45:21;;;;;;;;;;;2.20;99.90;;;;;;4952369;28;19937;-66
2022/01/29 07:47:48;;;;;;;;;;;2.20;99.90;;;;;;4943646;28;19936;-65
2022/01/29 07:50:15;;;;;;;;;;;2.30;99.90;;;;;;4933641;28;20049;-65
2022/01/29 07:52:41;;;;;;;;;;;2.30;99.90;;;;;;4932330;28;19926;-67
2022/01/29 07:55:08;;;;;;;;;;;2.20;99.90;;;;;;4926808;28;20009;-63
2022/01/29 07:57:35;;;;;;;;;;;2.30;99.90;;;;;;4928012;28;19997;-69
2022/01/29 08:00:02;;;;;;;;;;;2.30;99.90;;;;;;4926247;28;20600;-66
2022/01/29 08:02:39;;;;;;;;;;;2.30;99.90;;;;;;4934815;28;19933;-63
2022/01/29 08:05:06;;;;;;;;;;;2.30;99.90;;;;;;4934393;28;19941;-69
2022/01/29 08:07:33;;;;;;;;;;;2.30;99.90;;;;;;4931900;28;19937;-69
2022/01/29 08:10:00;;;;;;;;;;;2.30;99.90;;;;;;4926609;28;20012;-72
2022/01/29 08:12:27;;;;;;;;;;;2.40;99.90;;;;;;4929419;28;19993;-65
2022/01/29 08:14:54;;;;;;;;;;;2.40;99.90;;;;;;4929171;28;20057;-64
2022/01/29 08:17:21;;;;;;;;;;;2.40;99.90;;;;;;4935465;28;20037;-67
2022/01/29 08:19:49;;;;;;;;;;;2.40;99.90;;;;;;4930800;28;19926;-64
2022/01/29 08:22:16;;;;;;;;;;;2.40;99.90;;;;;;4878754;28;20591;-63
2022/01/29 08:25:04;;;;;;;;;;;2.50;99.90;;;;;;2939310;28;10002769;-70
2022/01/29 08:27:31;;;;;;;;;;;2.50;99.90;;;;;;3570026;28;10001542;-67
2022/01/29 08:29:58;;;;;;;;;;;2.50;99.90;;;;;;4900831;28;21018;-70
2022/01/29 08:32:43;;;;;;;;;;;2.50;99.90;;;;;;3994013;28;10000534;-71
2022/01/29 08:35:13;;;;;;;;;;;2.50;99.90;;;;;;2689301;28;10002013;-69
2022/01/29 08:37:40;;;;;;;;;;;2.50;99.90;;;;;;4891189;28;19942;-66
2022/01/29 08:40:07;;;;;;;;;;;2.50;99.90;;;;;;4892008;28;19931;-64
2022/01/29 08:42:34;;;;;;;;;;;2.40;99.90;;;;;;4885957;28;20112;-71
2022/01/29 08:45:03;;;;;;;;;;;2.40;99.90;;;;;;4898443;28;20069;-71
2022/01/29 08:47:30;;;;;;;;;;;2.40;99.90;;;;;;4896613;28;19926;-70
2022/01/29 08:49:56;;;;;;;;;;;2.40;99.90;;;;;;4899273;28;20623;-67
2022/01/29 08:52:23;;;;;;;;;;;2.40;99.90;;;;;;4898757;28;19989;-71
2022/01/29 08:54:50;;;;;;;;;;;2.40;99.90;;;;;;4899568;28;20021;-72
2022/01/29 08:57:17;;;;;;;;;;;2.40;99.90;;;;;;4897084;28;19942;-67
2022/01/29 08:59:44;;;;;;;;;;;2.40;99.90;;;;;;4926628;28;19965;-64
2022/01/29 09:02:10;;;;;;;;;;;2.50;99.90;;;;;;4941072;28;19926;-64
2022/01/29 09:04:37;;;;;;;;;;;2.50;99.90;;;;;;4940087;28;20419;-64
2022/01/29 09:07:05;;;;;;;;;;;2.50;99.90;;;;;;4941882;28;20299;-64
2022/01/29 09:09:32;;;;;;;;;;;2.50;99.90;;;;;;4943069;28;19923;-66
2022/01/29 09:11:59;;;;;;;;;;;2.50;99.90;;;;;;4943107;28;20094;-63
2022/01/29 09:14:26;;;;;;;;;;;2.60;99.90;;;;;;4950547;28;19926;-62
2022/01/29 09:16:52;;;;;;;;;;;2.60;99.90;;;;;;4940363;28;20013;-65
2022/01/29 09:19:20;;;;;;;;;;;2.70;99.90;;;;;;4943251;28;19989;-62
2022/01/29 09:21:46;;;;;;;;;;;2.70;99.90;;;;;;4943058;28;19930;-65
2022/01/29 09:24:13;;;;;;;;;;;2.70;99.90;;;;;;4947393;28;20373;-64
2022/01/29 09:26:40;;;;;;;;;;;2.80;99.90;;;;;;4946133;28;19923;-63
2022/01/29 09:29:07;;;;;;;;;;;2.80;99.90;;;;;;4939321;28;21850;-63
2022/01/29 09:31:34;;;;;;;;;;;2.90;99.90;;;;;;4940331;28;20016;-63
2022/01/29 09:34:01;;;;;;;;;;;2.90;99.90;;;;;;4947109;28;19945;-65
2022/01/29 09:36:27;;;;;;;;;;;2.90;99.90;;;;;;4946184;28;20393;-63
2022/01/29 09:38:54;;;;;;;;;;;3.00;99.90;;;;;;4942593;28;20753;-64
2022/01/29 09:41:25;;;;;;;;;;;3.00;99.90;;;;;;4940582;28;19958;-65
2022/01/29 09:43:52;;;;;;;;;;;3.10;99.90;;;;;;4855937;28;21028;-63
2022/01/29 09:46:30;;;;;;;;;;;3.10;99.90;;;;;;1601128;28;10021226;-66
2022/01/29 09:48:58;;;;;;;;;;;3.20;99.90;;;;;;4898750;28;19953;-71
2022/01/29 09:51:26;;;;;;;;;;;3.20;99.90;;;;;;4894985;28;19941;-71
2022/01/29 09:53:53;;;;;;;;;;;3.20;99.90;;;;;;4896123;28;20013;-70
2022/01/29 09:56:20;;;;;;;;;;;3.20;99.90;;;;;;4899466;28;19931;-74
2022/01/29 09:58:47;;;;;;;;;;;3.20;99.90;;;;;;4901585;28;19930;-71
2022/01/29 10:01:13;;;;;;;;;;;3.20;99.90;;;;;;4902198;28;19952;-62
2022/01/29 10:03:40;;;;;;;;;;;3.20;99.90;;;;;;4899384;28;22188;-69
2022/01/29 10:06:13;;;;;;;;;;;3.20;99.90;;;;;;4902938;28;19930;-65
2022/01/29 10:08:43;;;;;;;;;;;3.20;99.90;;;;;;4901027;28;20001;-71
2022/01/29 10:11:20;;;;;;;;;;;3.30;99.90;;;;;;4893350;28;19934;-71
2022/01/29 10:13:47;;;;;;;;;;;3.30;99.90;;;;;;4917810;28;19922;-63
2022/01/29 10:16:18;;;;;;;;;;;3.30;99.90;;;;;;4943403;28;20034;-67
2022/01/29 10:18:48;;;;;;;;;;;3.30;99.90;;;;;;4940774;28;19989;-66
2022/01/29 10:21:16;;;;;;;;;;;3.30;99.90;;;;;;4939760;28;20423;-64
2022/01/29 10:23:44;;;;;;;;;;;3.30;99.90;;;;;;4940617;28;19977;-63
2022/01/29 10:26:24;;;;;;;;;;;3.30;99.90;;;;;;4938700;28;19953;-63
2022/01/29 10:28:55;;;;;;;;;;;3.30;99.90;;;;;;4944362;28;19926;-65
2022/01/29 10:31:23;;;;;;;;;;;3.40;99.90;;;;;;4938270;28;19962;-70
2022/01/29 10:33:50;;;;;;;;;;;3.40;99.90;;;;;;4940981;28;19946;-63
2022/01/29 10:36:17;;;;;;;;;;;3.40;99.90;;;;;;4933335;28;19926;-67
2022/01/29 10:38:49;;;;;;;;;;;3.40;99.90;;;;;;4939345;28;19958;-64
2022/01/29 10:41:24;;;;;;;;;;;3.50;99.90;;;;;;4937323;28;19934;-62
2022/01/29 10:43:54;;;;;;;;;;;3.40;99.90;;;;;;4937336;28;19934;-64
2022/01/29 10:46:29;;;;;;;;;;;3.50;99.90;;;;;;4941706;28;19952;-66
2022/01/29 10:48:57;;;;;;;;;;;3.50;99.90;;;;;;4937630;28;20341;-63
2022/01/29 10:51:23;;;;;;;;;;;3.50;99.90;;;;;;4935080;28;19931;-66
2022/01/29 10:53:53;;;;;;;;;;;3.50;99.90;;;;;;4936633;28;20078;-64
2022/01/29 10:56:20;;;;;;;;;;;3.50;99.90;;;;;;4940644;28;19926;-63
2022/01/29 10:58:50;;;;;;;;;;;3.60;99.90;;;;;;4936862;28;20033;-62
2022/01/29 11:01:22;;;;;;;;;;;3.60;99.90;;;;;;4938490;28;20033;-62
2022/01/29 11:03:52;;;;;;;;;;;3.60;99.90;;;;;;4940585;28;19927;-68
2022/01/29 11:06:22;;;;;;;;;;;3.60;99.90;;;;;;4935584;28;20490;-64
2022/01/29 11:08:49;;;;;;;;;;;3.60;99.90;;;;;;4936794;28;19927;-68
2022/01/29 11:11:16;;;;;;;;;;;3.60;99.90;;;;;;4939912;28;20066;-66
2022/01/29 11:14:03;;;;;;;;;;;3.60;99.90;;;;;;4940480;28;19926;-65
2022/01/29 11:16:30;;;;;;;;;;;3.70;99.90;;;;;;4936436;28;20396;-66
2022/01/29 11:18:58;;;;;;;;;;;3.70;99.90;;;;;;4931896;28;19942;-65
2022/01/29 11:21:25;;;;;;;;;;;3.70;99.90;;;;;;4931330;28;19998;-66
2022/01/29 11:23:53;;;;;;;;;;;3.70;99.90;;;;;;4932289;28;20033;-67
2022/01/29 11:26:20;;;;;;;;;;;3.70;99.90;;;;;;4934859;28;19979;-66
2022/01/29 11:28:47;;;;;;;;;;;3.70;99.90;;;;;;4935875;28;19934;-71
2022/01/29 11:31:13;;;;;;;;;;;3.70;99.90;;;;;;4933511;28;19930;-69
2022/01/29 11:33:59;;;;;;;;;;;3.70;99.90;;;;;;4931099;28;19974;-66
2022/01/29 11:36:44;;;;;;;;;;;3.70;99.90;;;;;;4936541;28;19962;-70
2022/01/29 11:39:24;;;;;;;;;;;3.70;99.90;;;;;;4937406;28;19931;-66
2022/01/29 11:42:10;;;;;;;;;;;3.80;99.90;;;;;;4940737;28;19927;-65
2022/01/29 11:44:37;;;;;;;;;;;3.80;99.90;;;;;;4942127;28;20041;-67
2022/01/29 11:47:23;;;;;;;;;;;3.80;99.90;;;;;;4940108;28;20017;-70
2022/01/29 11:49:50;;;;;;;;;;;3.80;99.90;;;;;;4937146;28;20057;-68
2022/01/29 11:52:24;;;;;;;;;;;3.80;99.90;;;;;;4940921;28;19938;-66
2022/01/29 11:54:58;;;;;;;;;;;3.80;99.90;;;;;;4936066;28;19938;-63
2022/01/29 11:57:25;;;;;;;;;;;3.90;99.90;;;;;;4941707;28;20017;-65
2022/01/29 11:59:52;;;;;;;;;;;3.90;99.90;;;;;;4940600;28;20020;-68
2022/01/29 12:02:18;;;;;;;;;;;3.80;99.90;;;;;;4895334;28;20076;-67
2022/01/29 12:05:06;;;;;;;;;;;3.90;99.90;;;;;;2480166;28;10003058;-63
2022/01/29 12:07:39;;;;;;;;;;;3.90;99.90;;;;;;3534245;28;10001035;-74
2022/01/29 12:10:08;;;;;;;;;;;3.90;99.90;;;;;;4895603;28;20105;-79
2022/01/29 12:12:38;;;;;;;;;;;4.00;99.90;;;;;;4888883;28;20111;-66
2022/01/29 12:15:08;;;;;;;;;;;4.00;99.90;;;;;;4900481;28;20171;-68
2022/01/29 12:17:37;;;;;;;;;;;4.00;99.90;;;;;;4901561;28;19937;-67
2022/01/29 12:20:05;;;;;;;;;;;4.00;99.90;;;;;;4902142;28;19931;-73
2022/01/29 12:22:36;;;;;;;;;;;4.00;99.90;;;;;;4904288;28;20498;-64
2022/01/29 12:25:08;;;;;;;;;;;4.00;99.90;;;;;;4903683;28;20032;-62
2022/01/29 12:27:48;;;;;;;;;;;4.00;99.90;;;;;;4902353;28;20307;-74
2022/01/29 12:30:16;;;;;;;;;;;4.10;99.90;;;;;;4902026;28;19927;-72
2022/01/29 12:32:55;;;;;;;;;;;4.10;99.90;;;;;;4919842;28;20316;-64
2022/01/29 12:35:31;;;;;;;;;;;4.10;99.90;;;;;;4939064;28;20376;-63
2022/01/29 12:37:58;;;;;;;;;;;4.10;99.90;;;;;;4942556;28;20297;-67
2022/01/29 12:40:26;;;;;;;;;;;4.10;99.90;;;;;;4943522;28;19985;-65
2022/01/29 12:42:57;;;;;;;;;;;4.10;99.90;;;;;;4942013;28;20029;-63
2022/01/29 12:45:24;;;;;;;;;;;4.10;99.90;;;;;;4942267;28;19927;-66
2022/01/29 12:48:05;;;;;;;;;;;4.10;99.90;;;;;;4942581;28;19922;-63
2022/01/29 12:50:32;;;;;;;;;;;4.20;99.90;;;;;;4942630;28;19926;-63
2022/01/29 12:53:19;;;;;;;;;;;4.20;99.90;;;;;;4943364;28;20045;-74
2022/01/29 12:56:02;;;;;;;;;;;4.20;99.90;;;;;;4942023;28;19961;-68
2022/01/29 12:58:33;;;;;;;;;;;4.20;99.90;;;;;;4944482;28;20021;-63
2022/01/29 13:01:07;;;;;;;;;;;4.30;99.90;;;;;;4945029;28;20262;-66
2022/01/29 13:03:35;;;;;;;;;;;4.30;99.90;;;;;;4940343;28;20476;-63
2022/01/29 13:06:08;;;;;;;;;;;4.30;99.90;;;;;;4942094;28;20002;-63
2022/01/29 13:08:35;;;;;;;;;;;4.30;99.90;;;;;;4941300;28;20501;-63
2022/01/29 13:11:02;;;;;;;;;;;4.30;99.90;;;;;;4944393;28;19933;-63
2022/01/29 13:13:30;;;;;;;;;;;4.30;99.90;;;;;;4944721;28;19955;-63
2022/01/29 13:15:58;;;;;;;;;;;4.30;99.90;;;;;;4941426;28;20043;-65
2022/01/29 13:18:25;;;;;;;;;;;4.30;99.90;;;;;;4940063;28;19927;-64
2022/01/29 13:20:52;;;;;;;;;;;4.30;99.90;;;;;;4941139;28;19922;-68
2022/01/29 13:23:20;;;;;;;;;;;4.30;99.90;;;;;;4944856;28;20013;-64
2022/01/29 13:25:47;;;;;;;;;;;4.30;99.90;;;;;;4916681;28;20292;-74
2022/01/29 13:28:16;;;;;;;;;;;4.40;99.90;;;;;;4836184;28;21652;-64
2022/01/29 13:31:03;;;;;;;;;;;4.40;99.90;;;;;;1738870;28;10021989;-64
2022/01/29 13:33:33;;;;;;;;;;;4.40;99.90;;;;;;3887031;28;10001102;-70
2022/01/29 13:36:00;;;;;;;;;;;4.40;99.90;;;;;;4904261;28;19930;-74
2022/01/29 13:38:29;;;;;;;;;;;4.40;99.90;;;;;;4904454;28;20448;-67
2022/01/29 13:41:00;;;;;;;;;;;4.40;99.90;;;;;;4902383;28;20478;-72
2022/01/29 13:43:40;;;;;;;;;;;4.50;99.90;;;;;;4901791;28;20218;-66
2022/01/29 13:46:19;;;;;;;;;;;4.50;99.90;;;;;;4898743;28;19945;-63
2022/01/29 13:48:49;;;;;;;;;;;4.50;99.90;;;;;;4898872;28;19930;-65
2022/01/29 13:51:27;;;;;;;;;;;4.60;99.90;;;;;;4902714;28;19938;-75
2022/01/29 13:53:55;;;;;;;;;;;4.70;99.90;;;;;;4906802;28;19985;-74
2022/01/29 13:56:22;;;;;;;;;;;4.80;99.90;;;;;;4925535;28;19930;-63
2022/01/29 13:58:53;;;;;;;;;;;4.90;99.90;;;;;;4944374;28;19961;-62
2022/01/29 14:01:34;;;;;;;;;;;4.90;99.90;;;;;;4941047;28;20025;-71
2022/01/29 14:04:02;;;;;;;;;;;4.90;99.90;;;;;;4942138;28;19937;-68
2022/01/29 14:06:39;;;;;;;;;;;5.00;99.90;;;;;;4943499;28;19922;-71
2022/01/29 14:09:17;;;;;;;;;;;5.10;99.90;;;;;;4944023;28;19926;-64
2022/01/29 14:11:50;;;;;;;;;;;5.00;99.90;;;;;;4941158;28;19926;-71
2022/01/29 14:14:17;;;;;;;;;;;5.10;99.90;;;;;;4942383;28;19970;-65
2022/01/29 14:16:44;;;;;;;;;;;5.20;99.90;;;;;;4938939;28;19966;-64
2022/01/29 14:19:18;;;;;;;;;;;5.20;99.90;;;;;;4936263;28;19961;-65
2022/01/29 14:21:50;;;;;;;;;;;5.30;99.90;;;;;;4943448;28;19927;-64
2022/01/29 14:24:17;;;;;;;;;;;5.30;99.90;;;;;;4942342;28;19941;-63
2022/01/29 14:26:44;;;;;;;;;;;5.30;99.90;;;;;;4938490;28;19926;-67
2022/01/29 14:29:11;;;;;;;;;;;5.40;99.90;;;;;;4937517;28;19931;-64
2022/01/29 14:31:38;;;;;;;;;;;5.40;99.90;;;;;;4942714;28;19974;-65
2022/01/29 14:34:05;;;;;;;;;;;5.40;99.90;;;;;;4943279;28;19930;-63
2022/01/29 14:36:33;;;;;;;;;;;5.40;99.90;;;;;;4940929;28;19928;-63
2022/01/29 14:39:00;;;;;;;;;;;5.40;99.90;;;;;;4947031;28;20025;-67
2022/01/29 14:41:26;;;;;;;;;;;5.30;99.90;;;;;;4941197;28;20017;-68
2022/01/29 14:43:53;;;;;;;;;;;5.30;99.90;;;;;;4940225;28;20030;-63
2022/01/29 14:46:20;;;;;;;;;;;5.30;99.90;;;;;;4942614;28;19989;-66
2022/01/29 14:48:52;;;;;;;;;;;5.30;99.90;;;;;;4940416;28;19937;-63